createdAt,value
2023-03-29T00:02:29.116Z,1.00
2023-03-29T00:04:55.502Z,2.00
2023-03-29T00:07:21.873Z,2.00
2023-03-29T00:09:48.189Z,1.00
2023-03-29T00:15:08.629Z,1.00
2023-03-29T00:17:37.877Z,0.67
2023-03-29T00:20:04.236Z,2.00
2023-03-29T00:22:33.350Z,0.50
2023-03-29T00:24:59.685Z,1.33
2023-03-29T00:30:12.839Z,1.33
2023-03-29T00:32:41.997Z,0.67
2023-03-29T00:35:08.358Z,1.00
2023-03-29T00:37:34.683Z,2.00
2023-03-29T00:40:00.978Z,0.33
2023-03-29T00:45:24.238Z,2.00
2023-03-29T00:47:53.384Z,1.00
2023-03-29T00:50:19.775Z,0.67
2023-03-29T00:52:48.896Z,1.00
2023-03-29T00:55:15.262Z,1.67
2023-03-29T01:00:35.301Z,0.33
2023-03-29T01:03:01.701Z,2.00
2023-03-29T01:05:28.068Z,1.00
2023-03-29T01:07:57.164Z,0.67
2023-03-29T01:10:23.496Z,2.00
2023-03-29T01:15:46.505Z,0.33
2023-03-29T01:18:12.908Z,0.67
2023-03-29T01:20:42.007Z,1.00
2023-03-29T01:23:08.327Z,1.00
2023-03-29T01:25:34.668Z,2.00
2023-03-29T01:30:44.726Z,1.00
2023-03-29T01:33:11.055Z,1.33
2023-03-29T01:35:37.538Z,2.00
2023-03-29T01:38:03.931Z,1.33
2023-03-29T01:40:30.245Z,1.00
2023-03-29T01:45:50.147Z,1.33
2023-03-29T01:48:16.504Z,1.33
2023-03-29T01:50:42.833Z,1.33
2023-03-29T01:53:09.198Z,1.00
2023-03-29T01:55:35.495Z,1.67
2023-03-29T02:00:55.782Z,2.67
2023-03-29T02:03:25.065Z,0.50
2023-03-29T02:05:51.489Z,2.67
2023-03-29T02:08:17.866Z,2.33
2023-03-29T02:10:46.981Z,1.00
2023-03-29T02:16:07.010Z,2.00
2023-03-29T02:18:33.355Z,1.67
2023-03-29T02:21:02.645Z,0.67
2023-03-29T02:23:29.152Z,1.33
2023-03-29T02:25:55.496Z,2.33
2023-03-29T02:31:05.716Z,1.00
2023-03-29T02:33:32.138Z,1.00
2023-03-29T02:35:58.528Z,2.00
2023-03-29T02:38:24.883Z,2.00
2023-03-29T02:40:54.022Z,1.33
2023-03-29T02:46:04.087Z,2.00
2023-03-29T02:48:30.439Z,0.67
2023-03-29T02:50:56.766Z,2.00
2023-03-29T02:53:23.111Z,2.00
2023-03-29T02:55:52.254Z,0.83
2023-03-29T02:58:18.601Z,1.33
2023-03-29T03:00:44.969Z,2.33
2023-03-29T03:03:11.412Z,1.00
2023-03-29T03:05:37.840Z,1.33
2023-03-29T03:08:07.017Z,0.83
2023-03-29T03:10:33.358Z,2.33
2023-03-29T03:13:02.449Z,0.17
2023-03-29T03:15:28.806Z,2.00
2023-03-29T03:17:55.226Z,1.67
2023-03-29T03:20:21.707Z,2.00
2023-03-29T03:22:48.030Z,2.00
2023-03-29T03:25:14.385Z,2.00
2023-03-29T03:27:40.730Z,1.33
2023-03-29T03:30:07.067Z,3.00
2023-03-29T03:32:33.401Z,2.00
2023-03-29T03:34:59.792Z,1.67
2023-03-29T03:37:26.138Z,1.33
2023-03-29T03:39:52.483Z,2.00
2023-03-29T03:42:18.922Z,2.00
2023-03-29T03:44:45.213Z,1.00
2023-03-29T03:47:11.555Z,1.33
2023-03-29T03:49:37.891Z,2.00
2023-03-29T03:52:07.027Z,1.17
2023-03-29T03:54:33.349Z,2.00
2023-03-29T03:56:59.754Z,1.00
2023-03-29T03:59:26.146Z,1.33
2023-03-29T04:04:36.394Z,2.67
2023-03-29T04:07:02.780Z,1.67
2023-03-29T04:09:29.226Z,1.33
2023-03-29T04:11:55.555Z,2.00
2023-03-29T04:14:21.891Z,1.33
2023-03-29T04:19:42.434Z,2.00
2023-03-29T04:22:08.796Z,1.33
2023-03-29T04:24:37.936Z,1.17
2023-03-29T04:27:07.072Z,1.33
2023-03-29T04:29:33.408Z,2.00
2023-03-29T04:34:56.245Z,0.50
2023-03-29T04:37:22.578Z,2.67
2023-03-29T04:39:49.088Z,1.00
2023-03-29T04:42:15.491Z,2.00
2023-03-29T04:44:41.862Z,1.33
2023-03-29T04:50:02.224Z,2.00
2023-03-29T04:52:28.627Z,2.00
2023-03-29T04:54:54.941Z,2.00
2023-03-29T04:57:21.310Z,1.33
2023-03-29T04:59:47.715Z,2.00
2023-03-29T05:04:57.864Z,2.67
2023-03-29T05:07:24.184Z,1.67
2023-03-29T05:09:50.573Z,2.00
2023-03-29T05:12:16.874Z,2.67
2023-03-29T05:14:43.216Z,0.67
2023-03-29T05:20:03.358Z,3.00
2023-03-29T05:22:29.726Z,2.00
2023-03-29T05:24:56.046Z,2.00
2023-03-29T05:27:22.502Z,9.50
2023-03-29T05:29:48.994Z,14.50
2023-03-29T05:35:10.289Z,26.67
2023-03-29T05:37:37.592Z,14.00
2023-03-29T05:40:05.577Z,13.00
2023-03-29T05:42:32.822Z,12.00
2023-03-29T05:44:59.208Z,8.00
2023-03-29T05:50:10.081Z,5.75
2023-03-29T05:52:37.453Z,28.00
2023-03-29T05:55:04.964Z,17.00
2023-03-29T05:57:31.491Z,12.00
2023-03-29T05:59:59.766Z,74.75
2023-03-29T06:05:11.486Z,16.00
2023-03-29T06:07:38.774Z,17.00
2023-03-29T06:10:06.243Z,11.00
2023-03-29T06:12:33.975Z,33.33
2023-03-29T06:15:00.725Z,27.00
2023-03-29T06:20:22.172Z,14.00
2023-03-29T06:22:48.974Z,12.50
2023-03-29T06:25:16.267Z,18.00
2023-03-29T06:27:43.754Z,41.67
2023-03-29T06:30:11.017Z,17.33
2023-03-29T06:35:24.803Z,10.00
2023-03-29T06:37:51.148Z,8.00
2023-03-29T06:40:18.660Z,31.33
2023-03-29T06:42:45.142Z,41.50
2023-03-29T06:45:11.630Z,48.00
2023-03-29T06:50:32.264Z,45.00
2023-03-29T06:52:58.789Z,47.00
2023-03-29T06:55:25.294Z,43.50
2023-03-29T06:57:52.761Z,42.00
2023-03-29T07:00:20.188Z,35.67
2023-03-29T07:05:41.442Z,33.33
2023-03-29T07:08:07.934Z,34.00
2023-03-29T07:10:34.396Z,26.00
2023-03-29T07:13:01.843Z,25.33
2023-03-29T07:15:28.297Z,19.00
2023-03-29T07:20:40.799Z,17.33
2023-03-29T07:23:07.249Z,14.50
2023-03-29T07:25:33.719Z,21.50
2023-03-29T07:28:00.172Z,18.00
2023-03-29T07:30:27.314Z,16.50
2023-03-29T07:32:55.014Z,27.00
2023-03-29T07:35:22.414Z,16.33
2023-03-29T07:37:50.688Z,14.00
2023-03-29T07:40:17.230Z,31.00
2023-03-29T07:42:44.622Z,19.33
2023-03-29T07:45:11.918Z,16.00
2023-03-29T07:47:38.463Z,30.00
2023-03-29T07:50:05.971Z,22.00
2023-03-29T07:52:33.300Z,14.33
2023-03-29T07:55:02.476Z,13.33
2023-03-29T07:57:28.987Z,11.00
2023-03-29T07:59:55.500Z,9.67
2023-03-29T08:02:22.761Z,8.50
2023-03-29T08:04:49.246Z,8.33
2023-03-29T08:07:18.449Z,8.33
2023-03-29T08:09:45.269Z,5.33
2023-03-29T08:12:11.632Z,6.00
2023-03-29T08:14:37.965Z,5.00
2023-03-29T08:17:04.357Z,6.33
2023-03-29T08:19:30.809Z,7.00
2023-03-29T08:21:58.227Z,29.00
2023-03-29T08:24:24.622Z,12.00
2023-03-29T08:26:50.968Z,6.67
2023-03-29T08:29:18.181Z,6.50
2023-03-29T08:31:44.603Z,5.00
2023-03-29T08:34:10.956Z,4.67
2023-03-29T08:36:37.308Z,4.00
2023-03-29T08:39:03.697Z,5.00
2023-03-29T08:41:30.058Z,4.33
2023-03-29T08:43:56.474Z,3.00
2023-03-29T08:46:22.822Z,3.67
2023-03-29T08:48:49.220Z,5.00
2023-03-29T08:54:09.498Z,5.00
2023-03-29T08:56:35.861Z,3.67
2023-03-29T08:59:02.198Z,3.00
2023-03-29T09:01:28.608Z,3.33
2023-03-29T09:03:55.069Z,3.00
2023-03-29T09:09:15.482Z,2.00
2023-03-29T09:11:41.804Z,1.67
2023-03-29T09:14:08.150Z,2.00
2023-03-29T09:16:34.608Z,2.00
2023-03-29T09:19:01.059Z,2.33
2023-03-29T09:24:14.203Z,5.00
2023-03-29T09:26:40.508Z,3.00
2023-03-29T09:29:09.447Z,3.67
2023-03-29T09:31:36.020Z,2.67
2023-03-29T09:34:02.403Z,1.67
2023-03-29T09:39:12.855Z,2.00
2023-03-29T09:41:39.179Z,2.33
2023-03-29T09:44:05.539Z,2.67
2023-03-29T09:46:31.869Z,3.00
2023-03-29T09:48:58.182Z,2.67
2023-03-29T09:54:18.501Z,4.00
2023-03-29T09:56:44.872Z,3.00
2023-03-29T09:59:11.272Z,3.00
2023-03-29T10:01:37.644Z,4.00
2023-03-29T10:04:04.041Z,2.00
2023-03-29T10:09:24.208Z,3.00
2023-03-29T10:11:50.577Z,3.33
2023-03-29T10:14:16.960Z,4.00
2023-03-29T10:16:43.363Z,4.00
2023-03-29T10:19:09.755Z,3.00
2023-03-29T10:24:58.478Z,4.00
2023-03-29T10:27:24.847Z,5.33
2023-03-29T10:29:51.197Z,5.00
2023-03-29T10:32:18.412Z,4.00
2023-03-29T10:34:44.781Z,3.33
2023-03-29T10:40:04.882Z,4.67
2023-03-29T10:42:31.278Z,3.33
2023-03-29T10:44:57.634Z,4.33
2023-03-29T10:47:24.014Z,4.33
2023-03-29T10:49:51.001Z,3.00
2023-03-29T10:55:01.531Z,3.67
2023-03-29T10:57:27.969Z,4.00
2023-03-29T10:59:54.356Z,4.00
2023-03-29T11:02:20.733Z,5.00
2023-03-29T11:04:47.109Z,4.00
2023-03-29T11:10:07.540Z,5.00
2023-03-29T11:12:33.914Z,3.67
2023-03-29T11:15:00.254Z,3.00
2023-03-29T11:17:26.638Z,4.00
2023-03-29T11:19:53.060Z,4.00
2023-03-29T11:25:03.282Z,2.00
2023-03-29T11:27:29.659Z,2.33
2023-03-29T11:29:56.043Z,3.00
2023-03-29T11:32:22.387Z,3.00
2023-03-29T11:34:48.742Z,4.33
2023-03-29T11:40:09.176Z,3.00
2023-03-29T11:42:35.500Z,2.67
2023-03-29T11:45:01.872Z,4.33
2023-03-29T11:47:28.265Z,4.00
2023-03-29T11:49:54.604Z,2.33
2023-03-29T11:55:14.627Z,3.67
2023-03-29T11:57:41.073Z,2.00
2023-03-29T12:00:07.469Z,3.00
2023-03-29T12:02:33.932Z,4.00
2023-03-29T12:05:00.402Z,2.33
2023-03-29T12:07:26.762Z,4.33
2023-03-29T12:09:53.129Z,4.67
2023-03-29T12:12:19.468Z,3.33
2023-03-29T12:14:45.791Z,3.67
2023-03-29T12:17:12.162Z,3.00
2023-03-29T12:19:41.744Z,3.00
2023-03-29T12:22:09.781Z,4.00
2023-03-29T12:24:36.325Z,4.33
2023-03-29T12:27:02.713Z,4.00
2023-03-29T12:29:29.033Z,4.00
2023-03-29T12:31:55.507Z,4.00
2023-03-29T12:34:21.955Z,3.00
2023-03-29T12:36:48.314Z,3.67
2023-03-29T12:39:14.744Z,4.67
2023-03-29T12:41:41.081Z,5.00
2023-03-29T12:44:09.536Z,5.00
2023-03-29T12:46:37.167Z,5.00
2023-03-29T12:49:03.622Z,3.67
2023-03-29T12:51:29.947Z,6.00
2023-03-29T12:53:56.296Z,4.00
2023-03-29T12:56:22.677Z,3.33
2023-03-29T12:58:49.012Z,5.33
2023-03-29T13:01:16.361Z,5.00
2023-03-29T13:03:42.761Z,4.00
2023-03-29T13:06:09.151Z,5.33
2023-03-29T13:08:35.570Z,6.00
2023-03-29T13:11:01.973Z,5.33
2023-03-29T13:13:28.303Z,5.67
2023-03-29T13:15:54.731Z,5.00
2023-03-29T13:18:21.104Z,4.33
2023-03-29T13:20:47.448Z,5.00
2023-03-29T13:23:16.970Z,4.50
2023-03-29T13:28:27.665Z,5.00
2023-03-29T13:30:54.082Z,4.67
2023-03-29T13:33:20.519Z,5.00
2023-03-29T13:35:46.914Z,4.00
2023-03-29T13:38:13.400Z,4.00
2023-03-29T13:43:23.545Z,3.67
2023-03-29T13:45:49.879Z,4.67
2023-03-29T13:48:16.295Z,4.33
2023-03-29T13:50:42.667Z,4.00
2023-03-29T13:53:09.007Z,3.00
2023-03-29T13:58:29.200Z,4.00
2023-03-29T14:00:55.599Z,3.67
2023-03-29T14:03:21.998Z,4.33
2023-03-29T14:05:48.346Z,4.00
2023-03-29T14:08:14.722Z,3.00
2023-03-29T14:13:37.835Z,23.00
2023-03-29T14:16:05.462Z,20.00
2023-03-29T14:18:32.142Z,26.00
2023-03-29T14:20:58.710Z,32.00
2023-03-29T14:23:25.316Z,23.50
2023-03-29T14:28:36.451Z,13.00
2023-03-29T14:31:02.849Z,9.50
2023-03-29T14:33:29.371Z,10.00
2023-03-29T14:35:55.834Z,9.00
2023-03-29T14:38:22.232Z,7.33
2023-03-29T14:43:42.300Z,7.00
2023-03-29T14:46:08.686Z,6.00
2023-03-29T14:48:35.081Z,5.00
2023-03-29T14:51:01.490Z,6.00
2023-03-29T14:53:27.831Z,4.00
2023-03-29T14:58:37.987Z,5.00
2023-03-29T15:01:04.494Z,5.00
2023-03-29T15:03:30.950Z,5.00
2023-03-29T15:05:57.366Z,5.00
2023-03-29T15:08:23.686Z,5.33
2023-03-29T15:13:34.114Z,4.00
2023-03-29T15:16:00.650Z,3.67
2023-03-29T15:18:27.294Z,5.33
2023-03-29T15:20:53.648Z,6.00
2023-03-29T15:23:20.047Z,6.00
2023-03-29T15:25:46.410Z,6.00
2023-03-29T15:28:12.753Z,6.00
2023-03-29T15:30:39.988Z,6.50
2023-03-29T15:33:06.412Z,7.67
2023-03-29T15:35:32.863Z,6.33
2023-03-29T15:37:59.190Z,5.00
2023-03-29T15:40:25.613Z,5.00
2023-03-29T15:42:52.010Z,6.67
2023-03-29T15:45:18.377Z,5.00
2023-03-29T15:47:44.829Z,5.33
2023-03-29T15:50:11.258Z,6.00
2023-03-29T15:52:37.617Z,9.00
2023-03-29T15:55:03.980Z,8.00
2023-03-29T15:57:30.451Z,6.33
2023-03-29T15:59:56.864Z,7.00
2023-03-29T16:02:23.215Z,7.00
2023-03-29T16:04:49.724Z,15.00
2023-03-29T16:07:16.206Z,21.50
2023-03-29T16:09:42.642Z,11.50
2023-03-29T16:12:09.135Z,20.00
2023-03-29T16:14:36.482Z,17.00
2023-03-29T16:17:05.044Z,13.20
2023-03-29T16:19:32.346Z,11.25
2023-03-29T16:21:58.777Z,11.00
2023-03-29T16:24:25.277Z,27.00
2023-03-29T16:26:53.367Z,18.00
2023-03-29T16:32:15.888Z,25.50
2023-03-29T16:34:42.423Z,13.50
2023-03-29T16:37:08.904Z,13.00
2023-03-29T16:39:35.337Z,8.50
2023-03-29T16:42:01.834Z,22.00
2023-03-29T16:47:13.342Z,15.00
2023-03-29T16:49:40.289Z,14.00
2023-03-29T16:52:07.048Z,11.50
2023-03-29T16:54:33.483Z,8.50
2023-03-29T16:57:00.985Z,32.00
2023-03-29T17:02:23.199Z,18.00
2023-03-29T17:04:49.711Z,15.00
2023-03-29T17:07:16.212Z,12.00
2023-03-29T17:09:42.653Z,12.50
2023-03-29T17:12:11.806Z,9.50
2023-03-29T17:17:22.117Z,7.67
2023-03-29T17:19:48.479Z,9.00
2023-03-29T17:22:15.721Z,9.00
2023-03-29T17:24:42.216Z,26.00
2023-03-29T17:27:08.711Z,38.00
2023-03-29T17:32:30.412Z,28.00
2023-03-29T17:34:56.927Z,24.00
2023-03-29T17:37:23.386Z,21.00
2023-03-29T17:39:50.818Z,18.33
2023-03-29T17:42:17.297Z,30.00
2023-03-29T17:47:28.067Z,28.00
2023-03-29T17:49:54.538Z,25.00
2023-03-29T17:52:20.997Z,23.00
2023-03-29T17:54:48.373Z,19.00
2023-03-29T17:57:14.931Z,17.00
2023-03-29T18:02:26.537Z,32.00
2023-03-29T18:04:54.025Z,26.67
2023-03-29T18:07:20.566Z,24.00
2023-03-29T18:09:47.008Z,26.00
2023-03-29T18:12:14.400Z,24.50
2023-03-29T18:17:35.060Z,32.00
2023-03-29T18:20:02.546Z,24.33
2023-03-29T18:22:29.006Z,24.00
2023-03-29T18:24:56.423Z,21.67
2023-03-29T18:27:23.816Z,19.67
2023-03-29T18:32:36.947Z,13.50
2023-03-29T18:35:04.247Z,13.33
2023-03-29T18:37:30.918Z,12.00
2023-03-29T18:40:00.152Z,11.50
2023-03-29T18:42:26.691Z,11.00
2023-03-29T18:47:39.969Z,17.67
2023-03-29T18:50:08.287Z,12.40
2023-03-29T18:52:34.784Z,17.50
2023-03-29T18:55:01.274Z,17.00
2023-03-29T18:57:28.578Z,14.33
2023-03-29T19:02:53.800Z,12.33
2023-03-29T19:05:22.234Z,10.20
2023-03-29T19:07:50.506Z,11.60
2023-03-29T19:10:16.899Z,10.00
2023-03-29T19:12:43.316Z,11.00
2023-03-29T19:17:56.524Z,13.00
2023-03-29T19:20:23.047Z,16.00
2023-03-29T19:22:49.525Z,33.00
2023-03-29T19:25:16.982Z,21.67
2023-03-29T19:27:44.322Z,16.67
2023-03-29T19:33:06.709Z,15.67
2023-03-29T19:35:33.236Z,14.00
2023-03-29T19:37:59.697Z,22.00
2023-03-29T19:40:26.165Z,23.00
2023-03-29T19:42:52.622Z,19.50
2023-03-29T19:48:05.164Z,17.33
2023-03-29T19:50:32.478Z,14.67
2023-03-29T19:52:59.856Z,18.67
2023-03-29T19:55:26.336Z,28.50
2023-03-29T19:57:52.804Z,23.00
2023-03-29T20:00:19.283Z,20.00
2023-03-29T20:02:46.602Z,15.67
2023-03-29T20:05:13.183Z,32.00
2023-03-29T20:07:39.679Z,31.50
2023-03-29T20:10:07.042Z,29.50
2023-03-29T20:12:33.520Z,24.50
2023-03-29T20:14:59.985Z,26.00
2023-03-29T20:17:27.452Z,21.00
2023-03-29T20:19:54.857Z,21.33
2023-03-29T20:22:22.246Z,18.67
2023-03-29T20:24:49.647Z,19.67
2023-03-29T20:27:17.015Z,17.00
2023-03-29T20:29:44.354Z,21.33
2023-03-29T20:32:11.794Z,35.00
2023-03-29T20:34:38.419Z,30.50
2023-03-29T20:37:05.250Z,29.50
2023-03-29T20:39:32.774Z,29.00
2023-03-29T20:41:59.252Z,22.50
2023-03-29T20:44:25.723Z,24.00
2023-03-29T20:46:52.221Z,24.50
2023-03-29T20:49:19.613Z,21.33
2023-03-29T20:51:47.015Z,21.33
2023-03-29T20:54:13.447Z,21.00
2023-03-29T20:56:41.014Z,21.33
2023-03-29T20:59:07.481Z,20.00
2023-03-29T21:01:33.957Z,19.00
2023-03-29T21:06:56.266Z,15.67
2023-03-29T21:09:23.615Z,18.67
2023-03-29T21:11:50.833Z,15.00
2023-03-29T21:14:18.181Z,16.33
2023-03-29T21:16:45.418Z,14.33
2023-03-29T21:22:07.432Z,14.67
2023-03-29T21:24:37.411Z,15.43
2023-03-29T21:27:05.708Z,14.40
2023-03-29T21:29:32.248Z,14.00
2023-03-29T21:31:58.890Z,15.50
2023-03-29T21:37:09.321Z,30.00
2023-03-29T21:39:35.793Z,32.50
2023-03-29T21:42:02.259Z,35.00
2023-03-29T21:44:30.649Z,29.00
2023-03-29T21:46:59.425Z,27.00
2023-03-29T21:52:20.763Z,23.00
2023-03-29T21:54:47.310Z,20.00
2023-03-29T21:57:14.681Z,20.40
2023-03-29T21:59:41.098Z,18.50
2023-03-29T22:02:07.602Z,18.00
2023-03-29T22:07:19.201Z,16.00
2023-03-29T22:09:45.695Z,14.00
2023-03-29T22:12:12.138Z,15.50
2023-03-29T22:14:39.474Z,15.00
2023-03-29T22:17:06.804Z,16.67
2023-03-29T22:22:29.034Z,14.67
2023-03-29T22:24:58.965Z,15.00
2023-03-29T22:27:25.367Z,15.00
2023-03-29T22:29:51.843Z,14.00
2023-03-29T22:32:18.340Z,16.00
2023-03-29T22:37:42.791Z,14.00
2023-03-29T22:40:09.353Z,13.50
2023-03-29T22:42:36.607Z,15.00
2023-03-29T22:45:03.099Z,13.50
2023-03-29T22:47:30.432Z,12.33
2023-03-29T22:52:42.907Z,16.00
2023-03-29T22:55:10.190Z,17.00
2023-03-29T22:57:36.770Z,14.00
2023-03-29T23:00:03.266Z,12.00
2023-03-29T23:02:29.771Z,13.00
2023-03-29T23:07:50.549Z,15.00
2023-03-29T23:10:18.919Z,14.00
2023-03-29T23:12:46.193Z,16.00
2023-03-29T23:15:12.594Z,14.00
2023-03-29T23:17:39.887Z,15.00
2023-03-29T23:22:53.677Z,13.67
2023-03-29T23:25:20.168Z,13.50
2023-03-29T23:27:47.450Z,14.33
2023-03-29T23:30:14.708Z,15.33
2023-03-29T23:32:42.003Z,14.33
2023-03-29T23:37:54.531Z,14.60
2023-03-29T23:40:22.807Z,13.40
2023-03-29T23:42:49.257Z,14.00
2023-03-29T23:45:15.704Z,13.00
2023-03-29T23:47:42.969Z,15.33
2023-03-29T23:53:04.480Z,13.50
2023-03-29T23:55:33.705Z,12.50
2023-03-29T23:58:02.050Z,14.40
